Time;durP1;ratioP1;P1;durP2;ratioP2;P2;SDS_P1;SDS_P2;PMS_P1;PMS_P2;Temp;Humidity;BMP_temperature;BMP_pressure;BME280_temperature;BME280_humidity;BME280_pressure;Samples;Min_cycle;Max_cycle;Signal;HPM_P1;HPM_P2
2023/03/18 00:01:15;;;;;;;;;;;;;;;23.87;26.73;101280.41;5057307;28;1130;-21
2023/03/18 00:03:40;;;;;;;;;;;;;;;23.84;26.73;101274.34;5058096;28;1162;-21
2023/03/18 00:06:07;;;;;;;;;;;;;;;23.85;26.84;101267.97;5057598;28;1043;-21
2023/03/18 00:08:32;;;;;;;;;;;;;;;23.87;27.01;101270.53;5058011;28;1113;-21
2023/03/18 00:10:58;;;;;;;;;;;;;;;23.89;26.89;101278.44;5057555;28;1146;-21
2023/03/18 00:13:24;;;;;;;;;;;;;;;23.88;26.82;101272.19;5057674;28;1086;-21
2023/03/18 00:15:50;;;;;;;;;;;;;;;23.96;26.94;101258.00;5057518;28;1921;-21
2023/03/18 00:18:16;;;;;;;;;;;;;;;23.83;27.02;101274.47;5057277;28;877;-21
2023/03/18 00:20:41;;;;;;;;;;;;;;;23.94;26.86;101268.91;5057353;28;1105;-21
2023/03/18 00:23:07;;;;;;;;;;;;;;;23.89;27.06;101265.00;5056560;28;996;-21
2023/03/18 00:25:33;;;;;;;;;;;;;;;23.90;27.04;101264.84;5057155;28;1150;-21
2023/03/18 00:27:59;;;;;;;;;;;;;;;24.01;26.97;101255.72;5057574;28;1058;-21
2023/03/18 00:30:24;;;;;;;;;;;;;;;23.78;27.16;101256.13;5055306;28;1120;-21
2023/03/18 00:32:50;;;;;;;;;;;;;;;23.88;26.95;101249.84;5057628;28;1135;-21
2023/03/18 00:35:16;;;;;;;;;;;;;;;23.77;27.16;101250.91;5057514;28;1906;-20
2023/03/18 00:37:42;;;;;;;;;;;;;;;23.88;27.00;101260.59;5057154;28;1123;-21
2023/03/18 00:40:09;;;;;;;;;;;;;;;23.94;27.02;101257.34;5057229;28;1091;-21
2023/03/18 00:42:38;;;;;;;;;;;;;;;23.82;27.02;101252.13;5056670;28;929;-21
2023/03/18 00:45:05;;;;;;;;;;;;;;;23.81;27.13;101250.44;5057027;28;1197;-21
2023/03/18 00:47:30;;;;;;;;;;;;;;;23.82;27.04;101248.63;5056923;28;1027;-21
2023/03/18 00:49:56;;;;;;;;;;;;;;;23.90;26.96;101254.09;5057174;28;1107;-21
2023/03/18 00:52:22;;;;;;;;;;;;;;;23.89;27.01;101263.13;5056382;28;1113;-21
2023/03/18 00:54:47;;;;;;;;;;;;;;;23.74;27.27;101249.34;5056743;28;1973;-21
2023/03/18 00:57:13;;;;;;;;;;;;;;;23.71;27.14;101250.50;5057052;28;1125;-21
2023/03/18 00:59:39;;;;;;;;;;;;;;;23.74;27.14;101249.34;5055409;28;1115;-21
2023/03/18 01:02:05;;;;;;;;;;;;;;;23.74;27.15;101252.03;5055292;28;1232;-21
2023/03/18 01:04:31;;;;;;;;;;;;;;;23.65;27.26;101250.25;5056240;28;1126;-21
2023/03/18 01:06:56;;;;;;;;;;;;;;;23.72;27.24;101248.66;5056422;28;970;-21
2023/03/18 01:09:22;;;;;;;;;;;;;;;23.81;27.06;101255.81;5056834;28;1023;-21
2023/03/18 01:11:48;;;;;;;;;;;;;;;23.79;27.10;101254.28;5055323;28;1234;-21
2023/03/18 01:14:13;;;;;;;;;;;;;;;23.68;27.12;101253.47;5067502;28;1902;-21
2023/03/18 01:16:39;;;;;;;;;;;;;;;23.81;26.87;101242.41;5082383;28;1116;-21
2023/03/18 01:19:05;;;;;;;;;;;;;;;23.68;27.31;101256.16;5055057;28;1110;-21
2023/03/18 01:21:31;;;;;;;;;;;;;;;23.71;27.08;101255.00;5056475;28;1229;-21
2023/03/18 01:23:59;;;;;;;;;;;;;;;23.72;27.25;101251.34;5042065;28;1283;-21
2023/03/18 01:26:25;;;;;;;;;;;;;;;23.76;27.18;101251.88;5056664;28;1134;-21
2023/03/18 01:28:52;;;;;;;;;;;;;;;23.69;27.29;101263.22;5055090;28;1161;-21
2023/03/18 01:31:18;;;;;;;;;;;;;;;23.70;27.32;101253.34;5054833;28;1369;-21
2023/03/18 01:33:44;;;;;;;;;;;;;;;23.66;27.35;101252.78;5054715;28;1274;-21
2023/03/18 01:36:10;;;;;;;;;;;;;;;23.66;27.39;101251.91;5053386;28;1902;-21
2023/03/18 01:38:36;;;;;;;;;;;;;;;23.71;27.30;101250.50;5055071;28;1126;-21
2023/03/18 01:41:08;;;;;;;;;;;;;;;23.73;27.25;101245.84;5054679;28;1976;-21
2023/03/18 01:43:35;;;;;;;;;;;;;;;23.79;27.18;101248.91;5054687;28;1165;-21
2023/03/18 01:46:01;;;;;;;;;;;;;;;23.69;27.40;101248.97;5054569;28;1162;-21
2023/03/18 01:48:28;;;;;;;;;;;;;;;23.69;27.32;101255.16;5038300;28;1175;-21
2023/03/18 01:51:04;;;;;;;;;;;;;;;23.69;27.37;101255.16;5054970;28;1135;-21
2023/03/18 01:53:33;;;;;;;;;;;;;;;23.54;27.44;101262.03;5054383;28;1063;-21
2023/03/18 01:56:00;;;;;;;;;;;;;;;23.80;27.11;101254.16;5054798;28;2024;-21
2023/03/18 01:58:26;;;;;;;;;;;;;;;23.76;27.32;101257.25;5054679;28;1276;-21
2023/03/18 02:01:16;;;;;;;;;;;;;;;23.70;27.15;101258.69;5054665;28;1345;-21
2023/03/18 02:03:43;;;;;;;;;;;;;;;23.71;27.30;101255.00;5050062;28;1430;-21
2023/03/18 02:06:11;;;;;;;;;;;;;;;23.71;27.34;101265.75;5037276;28;1167;-21
2023/03/18 02:08:37;;;;;;;;;;;;;;;23.68;27.28;101258.84;5054731;28;1335;-21
2023/03/18 02:11:03;;;;;;;;;;;;;;;23.64;27.52;101260.13;5054983;28;1181;-21
2023/03/18 02:13:30;;;;;;;;;;;;;;;23.71;27.44;101260.38;5054517;28;1316;-21
2023/03/18 02:16:04;;;;;;;;;;;;;;;23.85;27.23;101249.19;5054734;28;1906;-21
2023/03/18 02:18:34;;;;;;;;;;;;;;;23.82;27.24;101252.13;5065631;28;1268;-21
2023/03/18 02:21:20;;;;;;;;;;;;;;;23.84;27.44;101255.53;5055485;28;896;-21
2023/03/18 02:24:08;;;;;;;;;;;;;;;23.69;27.37;101251.66;5071411;28;1263;-21
2023/03/18 02:26:52;;;;;;;;;;;;;;;23.72;27.52;101248.66;5055714;28;1130;-21
2023/03/18 02:29:25;;;;;;;;;;;;;;;23.54;27.73;101252.09;5054161;28;1213;-21
2023/03/18 02:32:00;;;;;;;;;;;;;;;23.62;27.63;101254.06;5038656;28;994;-21
2023/03/18 02:34:25;;;;;;;;;;;;;;;23.65;27.55;101261.84;5054580;28;1949;-21
2023/03/18 02:36:53;;;;;;;;;;;;;;;23.76;27.33;101255.41;5037633;28;1193;-21
2023/03/18 02:39:20;;;;;;;;;;;;;;;23.64;27.69;101248.56;5054355;28;1206;-21
2023/03/18 02:41:46;;;;;;;;;;;;;;;23.62;27.63;101250.53;5055324;28;1377;-21
2023/03/18 02:44:11;;;;;;;;;;;;;;;23.64;27.64;101251.25;5055681;28;1018;-21
2023/03/18 02:46:56;;;;;;;;;;;;;;;23.62;27.55;101245.16;5055600;28;1400;-21
2023/03/18 02:49:22;;;;;;;;;;;;;;;23.62;27.54;101242.47;5041207;28;1055;-21
2023/03/18 02:51:48;;;;;;;;;;;;;;;23.81;27.27;101252.28;5057794;28;1301;-21
2023/03/18 02:54:15;;;;;;;;;;;;;;;23.74;27.37;101249.34;5057829;28;1906;-21
2023/03/18 02:56:41;;;;;;;;;;;;;;;23.67;27.42;101250.94;5057675;28;1245;-21
2023/03/18 02:59:06;;;;;;;;;;;;;;;23.64;27.53;101253.94;5057639;28;1156;-21
2023/03/18 03:01:32;;;;;;;;;;;;;;;23.72;27.57;101251.34;5057791;28;1313;-21
2023/03/18 03:03:58;;;;;;;;;;;;;;;23.63;27.52;101247.69;5057538;28;1256;-21
2023/03/18 03:06:24;;;;;;;;;;;;;;;23.67;27.42;101259.00;5058716;28;1190;-21
2023/03/18 03:08:50;;;;;;;;;;;;;;;23.61;27.64;101257.75;5057442;28;1105;-21
2023/03/18 03:11:15;;;;;;;;;;;;;;;23.56;27.74;101260.88;5057808;28;1150;-21
2023/03/18 03:13:44;;;;;;;;;;;;;;;23.65;27.73;101260.97;5057083;28;1381;-21
2023/03/18 03:16:11;;;;;;;;;;;;;;;23.70;27.55;101258.69;5057613;28;1969;-21
2023/03/18 03:18:37;;;;;;;;;;;;;;;23.71;27.50;101252.31;5057098;28;1210;-21
2023/03/18 03:21:03;;;;;;;;;;;;;;;23.65;27.62;101259.16;5058498;28;1150;-21
2023/03/18 03:23:29;;;;;;;;;;;;;;;23.69;27.44;101255.16;5057610;28;1361;-21
2023/03/18 03:25:56;;;;;;;;;;;;;;;23.65;27.77;101251.09;5057313;28;1245;-21
2023/03/18 03:28:21;;;;;;;;;;;;;;;23.68;27.69;101244.56;5058040;28;1070;-21
2023/03/18 03:30:46;;;;;;;;;;;;;;;23.66;27.52;101250.09;5058483;28;1121;-21
2023/03/18 03:33:14;;;;;;;;;;;;;;;23.62;27.61;101248.72;5056975;28;1246;-21
2023/03/18 03:35:40;;;;;;;;;;;;;;;23.63;27.54;101247.69;5058002;28;1902;-21
2023/03/18 03:38:06;;;;;;;;;;;;;;;23.60;27.72;101245.31;5058147;28;1244;-21
2023/03/18 03:40:31;;;;;;;;;;;;;;;23.64;27.60;101246.69;5058248;28;1150;-21
2023/03/18 03:42:57;;;;;;;;;;;;;;;23.66;27.46;101241.19;5057911;28;1149;-21
2023/03/18 03:45:23;;;;;;;;;;;;;;;23.58;27.72;101247.28;5058470;28;1034;-21
2023/03/18 03:47:52;;;;;;;;;;;;;;;23.73;27.38;101256.56;5056925;28;1118;-21
2023/03/18 03:50:18;;;;;;;;;;;;;;;23.66;27.53;101247.41;5056526;28;1154;-21
2023/03/18 03:52:43;;;;;;;;;;;;;;;23.65;27.57;101250.25;5058664;28;1117;-21
2023/03/18 03:55:11;;;;;;;;;;;;;;;23.65;27.51;101251.09;5057590;28;2004;-21
2023/03/18 03:57:36;;;;;;;;;;;;;;;23.60;27.62;101254.22;5055566;28;1457;-21
2023/03/18 04:00:06;;;;;;;;;;;;;;;23.68;27.63;101256.16;5057246;28;1205;-22
2023/03/18 04:02:43;;;;;;;;;;;;;;;23.53;27.88;101257.63;5058462;28;1223;-21
2023/03/18 04:05:11;;;;;;;;;;;;;;;23.58;27.56;101258.03;5057828;28;1112;-21
2023/03/18 04:07:37;;;;;;;;;;;;;;;23.60;27.62;101256.06;5058169;28;1082;-21
2023/03/18 04:10:03;;;;;;;;;;;;;;;23.61;27.56;101249.69;5057654;28;1182;-21
2023/03/18 04:12:29;;;;;;;;;;;;;;;23.76;27.53;101255.41;5042949;28;1234;-21
2023/03/18 04:14:59;;;;;;;;;;;;;;;23.76;27.83;101255.41;5056387;28;1909;-21
2023/03/18 04:17:24;;;;;;;;;;;;;;;23.71;28.07;101263.94;5072804;28;1802;-21
2023/03/18 04:19:50;;;;;;;;;;;;;;;23.88;27.67;101257.91;5055383;28;1299;-21
2023/03/18 04:22:17;;;;;;;;;;;;;;;23.82;27.78;101254.81;5056117;28;1867;-21
2023/03/18 04:24:43;;;;;;;;;;;;;;;25.40;25.44;101257.38;5056204;28;1278;-22
2023/03/18 04:27:10;;;;;;;;;;;;;;;26.52;24.03;101248.41;5051796;28;1349;-21
2023/03/18 04:29:36;;;;;;;;;;;;;;;27.19;22.77;101264.63;5056102;28;1306;-21
2023/03/18 04:32:02;;;;;;;;;;;;;;;27.38;22.40;101266.09;5047486;28;1372;-21
2023/03/18 04:34:28;;;;;;;;;;;;;;;27.67;22.08;101269.22;5055806;28;1902;-21
2023/03/18 04:36:54;;;;;;;;;;;;;;;27.87;21.55;101274.25;5056189;28;1097;-21
2023/03/18 04:39:21;;;;;;;;;;;;;;;27.94;21.00;101269.84;5072867;28;1371;-21
2023/03/18 04:41:47;;;;;;;;;;;;;;;27.97;19.92;101269.47;5056369;28;1235;-21
2023/03/18 04:44:16;;;;;;;;;;;;;;;24.70;18.61;101258.00;5049350;28;1380;-22
2023/03/18 04:46:48;;;;;;;;;;;;;;;19.70;17.19;101237.50;5055736;28;1252;-22
2023/03/18 04:49:14;;;;;;;;;;;;;;;17.89;19.54;101237.41;5055476;28;1629;-22
2023/03/18 04:51:40;;;;;;;;;;;;;;;20.31;19.71;101246.09;5054040;28;1333;-21
2023/03/18 04:54:14;;;;;;;;;;;;;;;22.93;18.90;101246.97;5066160;28;1991;-23
2023/03/18 04:56:40;;;;;;;;;;;;;;;24.22;17.78;101246.59;5046726;28;1357;-21
2023/03/18 04:59:05;;;;;;;;;;;;;;;23.72;17.00;101259.41;5047214;28;1246;-21
2023/03/18 05:01:32;;;;;;;;;;;;;;;22.48;16.98;101259.06;5052077;28;1470;-21
2023/03/18 05:03:58;;;;;;;;;;;;;;;20.62;17.53;101264.94;5048768;28;1044;-21
2023/03/18 05:06:32;;;;;;;;;;;;;;;20.18;17.44;101263.13;5054369;28;1236;-21
2023/03/18 05:09:08;;;;;;;;;;;;;;;20.06;17.59;101267.63;5055113;28;1220;-21
2023/03/18 05:11:34;;;;;;;;;;;;;;;20.24;17.63;101263.56;5054078;28;1255;-23
2023/03/18 05:14:09;;;;;;;;;;;;;;;20.10;17.51;101270.03;5055478;28;1166;-21
2023/03/18 05:16:43;;;;;;;;;;;;;;;19.93;18.01;101273.06;5056355;28;1122;-20
2023/03/18 05:19:08;;;;;;;;;;;;;;;20.16;17.93;101270.41;5056639;28;1067;-21
2023/03/18 05:21:38;;;;;;;;;;;;;;;20.14;17.72;101266.13;5055129;28;1565;-21
2023/03/18 05:24:04;;;;;;;;;;;;;;;19.92;18.44;101268.66;5064184;28;1850;-22
2023/03/18 05:26:35;;;;;;;;;;;;;;;19.92;18.56;101273.16;5082947;28;1233;-22
2023/03/18 05:29:00;;;;;;;;;;;;;;;19.98;18.73;101272.69;5044356;28;1095;-22
2023/03/18 05:31:35;;;;;;;;;;;;;;;19.77;19.35;101265.41;5062786;28;1578;-22
2023/03/18 05:34:02;;;;;;;;;;;;;;;20.29;19.83;101266.72;5049821;28;1372;-22
2023/03/18 05:36:32;;;;;;;;;;;;;;;20.21;18.90;101266.50;5055213;28;1987;-22
2023/03/18 05:39:04;;;;;;;;;;;;;;;20.19;18.79;101259.47;5055213;28;1391;-22
2023/03/18 05:41:29;;;;;;;;;;;;;;;20.29;18.58;101269.41;5055668;28;1019;-24
2023/03/18 05:43:56;;;;;;;;;;;;;;;20.76;18.43;101260.28;5054519;28;1163;-22
2023/03/18 05:46:22;;;;;;;;;;;;;;;20.22;19.02;101253.00;5055062;28;2167;-21
2023/03/18 05:49:05;;;;;;;;;;;;;;;20.63;18.81;101263.13;5054666;28;1324;-22
2023/03/18 05:51:42;;;;;;;;;;;;;;;20.74;18.62;101263.09;5056568;28;1196;-22
2023/03/18 05:54:12;;;;;;;;;;;;;;;20.78;18.70;101261.00;5055094;28;1471;-22
2023/03/18 05:56:42;;;;;;;;;;;;;;;21.23;18.42;101259.13;5071024;28;1249;-22
2023/03/18 05:59:09;;;;;;;;;;;;;;;21.41;18.48;101259.38;5054695;28;1454;-22
2023/03/18 06:01:46;;;;;;;;;;;;;;;23.93;18.50;101274.44;5071285;28;1260;-23
2023/03/18 06:04:11;;;;;;;;;;;;;;;25.42;17.02;101261.56;5054237;28;1268;-23
2023/03/18 06:06:39;;;;;;;;;;;;;;;26.12;16.30;101274.22;5054870;28;1300;-23
2023/03/18 06:09:09;;;;;;;;;;;;;;;26.56;16.19;101266.97;5053722;28;1301;-25
2023/03/18 06:11:35;;;;;;;;;;;;;;;26.77;16.44;101275.41;5056224;28;1202;-23
2023/03/18 06:14:02;;;;;;;;;;;;;;;27.18;16.25;101281.81;5055143;28;1219;-23
2023/03/18 06:16:27;;;;;;;;;;;;;;;27.45;16.43;101281.63;5055973;28;1993;-23
2023/03/18 06:18:54;;;;;;;;;;;;;;;27.65;16.31;101282.06;5054748;28;1311;-24
2023/03/18 06:21:19;;;;;;;;;;;;;;;25.63;19.23;101281.94;5056179;28;1135;-23
2023/03/18 06:23:46;;;;;;;;;;;;;;;26.17;18.43;101282.69;5073902;28;1260;-24
2023/03/18 06:26:12;;;;;;;;;;;;;;;27.18;17.71;101291.78;5049639;28;1226;-23
2023/03/18 06:28:45;;;;;;;;;;;;;;;27.55;17.57;101292.22;5055482;28;1360;-24
2023/03/18 06:31:10;;;;;;;;;;;;;;;27.91;17.50;101289.09;5056577;28;1133;-23
2023/03/18 06:33:37;;;;;;;;;;;;;;;27.98;17.42;101291.94;5067043;28;1213;-25
2023/03/18 06:36:04;;;;;;;;;;;;;;;27.81;17.75;101293.88;5054989;28;1987;-23
2023/03/18 06:38:31;;;;;;;;;;;;;;;26.28;19.63;101292.31;5058551;28;1260;-23
2023/03/18 06:40:57;;;;;;;;;;;;;;;26.39;19.55;101299.28;5047095;28;1351;-23
2023/03/18 06:43:23;;;;;;;;;;;;;;;27.50;18.72;101306.25;5053654;28;1617;-22
2023/03/18 06:45:49;;;;;;;;;;;;;;;27.94;18.06;101299.59;5058200;28;1541;-24
2023/03/18 06:48:16;;;;;;;;;;;;;;;28.00;18.44;101306.13;5058018;28;1284;-22
2023/03/18 06:50:43;;;;;;;;;;;;;;;27.77;18.60;101306.03;5041533;28;1321;-23
2023/03/18 06:53:32;;;;;;;;;;;;;;;27.84;18.77;101312.47;5049575;28;1286;-22
2023/03/18 06:55:57;;;;;;;;;;;;;;;26.38;20.00;101309.22;5072942;28;1925;-23
2023/03/18 06:58:27;;;;;;;;;;;;;;;26.38;20.50;101311.94;5056616;28;1658;-23
2023/03/18 07:01:01;;;;;;;;;;;;;;;27.95;18.93;101306.66;5054203;28;1163;-24
2023/03/18 07:03:33;;;;;;;;;;;;;;;28.50;18.53;101329.41;5057639;28;1291;-21
2023/03/18 07:05:59;;;;;;;;;;;;;;;28.75;18.43;101313.00;5057292;28;1585;-22
2023/03/18 07:08:25;;;;;;;;;;;;;;;28.86;18.30;101299.06;5057580;28;1182;-22
2023/03/18 07:10:52;;;;;;;;;;;;;;;28.95;18.31;101297.09;5059049;28;1137;-22
2023/03/18 07:13:18;;;;;;;;;;;;;;;27.21;19.53;101294.16;5057724;28;1357;-22
2023/03/18 07:15:44;;;;;;;;;;;;;;;26.53;20.84;101306.75;5058731;28;1977;-22
2023/03/18 07:18:10;;;;;;;;;;;;;;;28.61;18.84;101299.25;5057271;28;1118;-22
2023/03/18 07:20:37;;;;;;;;;;;;;;;29.00;18.37;101294.72;5057291;28;1207;-22
2023/03/18 07:23:02;;;;;;;;;;;;;;;29.33;17.98;101299.00;5058812;28;1143;-24
2023/03/18 07:25:29;;;;;;;;;;;;;;;28.13;18.89;101296.63;5074004;28;1640;-22
2023/03/18 07:27:55;;;;;;;;;;;;;;;26.72;20.62;101288.56;5058941;28;1101;-22
2023/03/18 07:30:21;;;;;;;;;;;;;;;27.95;19.56;101301.25;5057465;28;1114;-22
2023/03/18 07:32:48;;;;;;;;;;;;;;;28.85;18.64;101300.91;5058070;28;1051;-22
2023/03/18 07:35:14;;;;;;;;;;;;;;;29.39;17.87;101300.97;5058539;28;1906;-22
2023/03/18 07:37:40;;;;;;;;;;;;;;;29.39;18.18;101298.28;5058925;28;1026;-22
2023/03/18 07:40:06;;;;;;;;;;;;;;;29.33;18.08;101297.13;5055897;28;1261;-22
2023/03/18 07:42:32;;;;;;;;;;;;;;;27.81;19.48;101305.53;5058323;28;935;-22
2023/03/18 07:44:58;;;;;;;;;;;;;;;27.06;20.15;101299.41;5058459;28;1114;-22
2023/03/18 07:47:23;;;;;;;;;;;;;;;28.68;18.78;101308.31;5058240;28;1324;-22
2023/03/18 07:49:50;;;;;;;;;;;;;;;29.21;18.50;101296.72;5058579;28;1205;-22
2023/03/18 07:52:16;;;;;;;;;;;;;;;29.01;18.08;101309.94;5058187;28;1108;-22
2023/03/18 07:54:42;;;;;;;;;;;;;;;26.97;20.37;101301.22;5055271;28;1906;-22
2023/03/18 07:57:08;;;;;;;;;;;;;;;27.53;20.64;101303.22;5050098;28;935;-22
2023/03/18 07:59:35;;;;;;;;;;;;;;;28.54;19.05;101304.53;5057626;28;1078;-22
2023/03/18 08:02:01;;;;;;;;;;;;;;;28.98;18.62;101306.78;5053386;28;1206;-21
2023/03/18 08:04:27;;;;;;;;;;;;;;;29.27;18.49;101316.00;5052832;28;1139;-22
2023/03/18 08:06:54;;;;;;;;;;;;;;;28.84;18.74;101311.94;5058118;28;1139;-22
2023/03/18 08:09:19;;;;;;;;;;;;;;;27.16;20.60;101310.03;5057724;28;1165;-22
2023/03/18 08:11:45;;;;;;;;;;;;;;;26.69;21.00;101317.72;5057609;28;1082;-22
2023/03/18 08:14:11;;;;;;;;;;;;;;;26.48;21.64;101308.22;5057969;28;1221;-22
2023/03/18 08:16:36;;;;;;;;;;;;;;;26.29;21.64;101311.03;5057967;28;1976;-22
2023/03/18 08:19:02;;;;;;;;;;;;;;;26.26;21.81;101314.06;5057926;28;1138;-22
2023/03/18 08:21:28;;;;;;;;;;;;;;;26.41;21.55;101314.28;5057770;28;899;-22
2023/03/18 08:23:55;;;;;;;;;;;;;;;26.26;21.77;101303.25;5057881;28;1169;-22
2023/03/18 08:26:20;;;;;;;;;;;;;;;26.25;21.91;101308.81;5056052;28;1353;-22
2023/03/18 08:28:46;;;;;;;;;;;;;;;26.00;22.39;101301.50;5043983;28;1070;-22
2023/03/18 08:31:13;;;;;;;;;;;;;;;26.07;22.22;101300.84;5045667;28;1064;-21
2023/03/18 08:33:38;;;;;;;;;;;;;;;25.75;22.47;101304.06;5052066;28;1059;-22
2023/03/18 08:36:04;;;;;;;;;;;;;;;25.94;22.55;101304.84;5050474;28;1910;-22
2023/03/18 08:38:30;;;;;;;;;;;;;;;25.94;22.36;101299.44;5047476;28;910;-22
2023/03/18 08:40:56;;;;;;;;;;;;;;;25.95;22.71;101301.13;5056336;28;1150;-22
2023/03/18 08:43:22;;;;;;;;;;;;;;;25.83;22.68;101303.25;5052480;28;1114;-21
2023/03/18 08:45:53;;;;;;;;;;;;;;;25.79;22.59;101299.22;5056526;28;909;-21
2023/03/18 08:48:20;;;;;;;;;;;;;;;25.74;22.64;101305.06;5044974;28;1082;-22
2023/03/18 08:50:45;;;;;;;;;;;;;;;25.55;22.69;101311.50;5057233;28;1183;-21
2023/03/18 08:53:12;;;;;;;;;;;;;;;25.40;22.88;101300.44;5057333;28;1218;-22
2023/03/18 08:55:38;;;;;;;;;;;;;;;25.07;22.92;101314.53;5056793;28;1902;-22
2023/03/18 08:58:04;;;;;;;;;;;;;;;25.14;22.87;101314.75;5056605;28;1023;-21
2023/03/18 09:00:30;;;;;;;;;;;;;;;25.11;22.85;101304.28;5043458;28;1226;-22
2023/03/18 09:02:55;;;;;;;;;;;;;;;25.17;22.62;101300.97;5037012;28;1210;-22
2023/03/18 09:05:21;;;;;;;;;;;;;;;25.26;22.46;101301.84;5036961;28;1154;-22
2023/03/18 09:07:47;;;;;;;;;;;;;;;25.07;22.87;101315.34;5056936;28;1097;-21
2023/03/18 09:10:13;;;;;;;;;;;;;;;25.09;22.81;101303.59;5056548;28;1086;-21
2023/03/18 09:12:39;;;;;;;;;;;;;;;25.05;22.80;101313.81;5056849;28;1066;-21
2023/03/18 09:15:06;;;;;;;;;;;;;;;24.98;22.76;101307.34;5056838;28;1954;-21
2023/03/18 09:17:31;;;;;;;;;;;;;;;24.89;22.99;101307.25;5056509;28;1018;-22
2023/03/18 09:19:57;;;;;;;;;;;;;;;24.87;22.82;101298.50;5054869;28;1062;-22
2023/03/18 09:22:23;;;;;;;;;;;;;;;24.77;23.26;101298.59;5056153;28;1121;-21
2023/03/18 09:24:48;;;;;;;;;;;;;;;24.85;23.18;101296.97;5049651;28;1408;-21
2023/03/18 09:27:14;;;;;;;;;;;;;;;24.76;23.02;101287.97;5056535;28;1197;-22
2023/03/18 09:29:39;;;;;;;;;;;;;;;24.78;22.94;101294.88;5056432;28;1170;-22
2023/03/18 09:32:05;;;;;;;;;;;;;;;25.24;22.99;101293.13;5046728;28;1384;-22
2023/03/18 09:34:30;;;;;;;;;;;;;;;25.17;23.94;101291.03;5049234;28;1982;-22
2023/03/18 09:36:57;;;;;;;;;;;;;;;25.27;23.56;101290.09;5056493;28;1174;-21
2023/03/18 09:39:22;;;;;;;;;;;;;;;25.35;22.64;101292.00;5045350;28;1059;-22
2023/03/18 09:42:06;;;;;;;;;;;;;;;25.02;22.72;101288.06;5053049;28;1166;-21
2023/03/18 09:44:33;;;;;;;;;;;;;;;24.94;22.63;101286.16;5043155;28;1645;-22
2023/03/18 09:47:02;;;;;;;;;;;;;;;24.95;22.51;101292.38;5048823;28;1380;-22
2023/03/18 09:49:37;;;;;;;;;;;;;;;24.97;22.53;101295.78;5041927;28;1460;-22
2023/03/18 09:52:06;;;;;;;;;;;;;;;25.00;22.72;101295.47;5074914;28;1123;-22
2023/03/18 09:54:32;;;;;;;;;;;;;;;24.99;22.54;101285.66;5056220;28;1914;-21
2023/03/18 09:56:57;;;;;;;;;;;;;;;25.03;22.69;101287.06;5058505;28;1145;-22
2023/03/18 09:59:23;;;;;;;;;;;;;;;25.02;22.45;101293.47;5058863;28;980;-22
2023/03/18 10:01:53;;;;;;;;;;;;;;;24.97;22.61;101300.28;5059541;28;1444;-22
2023/03/18 10:04:20;;;;;;;;;;;;;;;24.75;23.01;101289.81;5058944;28;1023;-22
2023/03/18 10:06:46;;;;;;;;;;;;;;;24.59;23.04;101290.50;5058718;28;1256;-22
2023/03/18 10:09:23;;;;;;;;;;;;;;;24.72;23.00;101279.38;5059531;28;1129;-22
2023/03/18 10:11:50;;;;;;;;;;;;;;;24.56;22.93;101280.03;5059660;28;1186;-22
2023/03/18 10:14:34;;;;;;;;;;;;;;;24.42;23.51;101278.75;5059634;28;1093;-22
2023/03/18 10:16:59;;;;;;;;;;;;;;;24.23;22.89;101283.22;5060373;28;1170;-22
2023/03/18 10:19:25;;;;;;;;;;;;;;;24.06;23.08;101276.78;5059745;28;1121;-22
2023/03/18 10:21:53;;;;;;;;;;;;;;;24.30;23.15;101286.16;5059226;28;1150;-22
2023/03/18 10:24:35;;;;;;;;;;;;;;;24.27;23.34;101273.88;5060180;28;1091;-22
2023/03/18 10:27:18;;;;;;;;;;;;;;;24.54;23.03;101285.56;5047620;28;1117;-22
2023/03/18 10:29:46;;;;;;;;;;;;;;;24.50;23.02;101278.81;5059329;28;1106;-22
2023/03/18 10:32:18;;;;;;;;;;;;;;;24.60;22.94;101272.50;5058224;28;1154;-22
2023/03/18 10:34:43;;;;;;;;;;;;;;;24.67;23.04;101262.84;5059365;28;2023;-22
2023/03/18 10:37:09;;;;;;;;;;;;;;;24.36;23.35;101264.03;5059132;28;1146;-22
2023/03/18 10:39:35;;;;;;;;;;;;;;;24.52;23.60;101268.75;5059301;28;1026;-22
2023/03/18 10:42:01;;;;;;;;;;;;;;;24.64;23.54;101258.59;5058151;28;1048;-22
2023/03/18 10:44:29;;;;;;;;;;;;;;;24.80;23.61;101257.06;5058897;28;1190;-22
2023/03/18 10:47:14;;;;;;;;;;;;;;;24.81;23.73;101256.91;5057792;28;821;-22
2023/03/18 10:49:41;;;;;;;;;;;;;;;24.93;23.58;101248.63;5058317;28;1163;-22
2023/03/18 10:52:15;;;;;;;;;;;;;;;24.73;23.81;101254.16;5057664;28;1179;-23
2023/03/18 10:54:42;;;;;;;;;;;;;;;24.64;24.02;101249.72;5058937;28;1972;-22
2023/03/18 10:57:11;;;;;;;;;;;;;;;24.69;24.06;101252.78;5059430;28;1134;-23
2023/03/18 10:59:37;;;;;;;;;;;;;;;24.86;23.93;101256.44;5059374;28;1154;-22
2023/03/18 11:02:03;;;;;;;;;;;;;;;24.90;23.80;101241.72;5059301;28;1155;-22
2023/03/18 11:04:30;;;;;;;;;;;;;;;24.89;23.68;101239.97;5057757;28;1151;-22
2023/03/18 11:06:56;;;;;;;;;;;;;;;24.91;23.93;101238.00;5057378;28;1159;-22
2023/03/18 11:09:41;;;;;;;;;;;;;;;24.94;23.67;101236.88;5059099;28;1146;-22
2023/03/18 11:12:17;;;;;;;;;;;;;;;24.94;23.73;101237.69;5046118;28;1166;-22
2023/03/18 11:14:49;;;;;;;;;;;;;;;24.84;24.07;101239.59;5049318;28;1914;-22
2023/03/18 11:17:17;;;;;;;;;;;;;;;24.62;24.63;101240.94;5059062;28;1126;-23
2023/03/18 11:20:10;;;;;;;;;;;;;;;24.78;24.14;101230.31;5059089;28;1142;-22
2023/03/18 11:22:35;;;;;;;;;;;;;;;24.85;24.01;101235.06;5040558;28;1136;-22
2023/03/18 11:25:01;;;;;;;;;;;;;;;24.86;23.97;101234.09;5058900;28;1068;-22
2023/03/18 11:27:28;;;;;;;;;;;;;;;24.91;23.95;101232.63;5058743;28;1174;-22
2023/03/18 11:29:58;;;;;;;;;;;;;;;24.94;23.76;101231.50;5058435;28;1011;-22
2023/03/18 11:32:28;;;;;;;;;;;;;;;24.95;23.93;101233.16;5058891;28;1108;-23
2023/03/18 11:34:56;;;;;;;;;;;;;;;24.99;24.06;101228.31;5058104;28;1967;-22
2023/03/18 11:37:25;;;;;;;;;;;;;;;24.74;24.36;101223.53;5058312;28;1086;-22
2023/03/18 11:39:51;;;;;;;;;;;;;;;24.79;24.14;101237.38;5058334;28;1034;-22
2023/03/18 11:42:17;;;;;;;;;;;;;;;24.77;24.38;101219.72;5056707;28;1055;-23
2023/03/18 11:44:43;;;;;;;;;;;;;;;24.49;24.65;101231.38;5058888;28;1055;-22
2023/03/18 11:47:35;;;;;;;;;;;;;;;24.65;24.36;101224.47;5056774;28;1078;-23
2023/03/18 11:50:01;;;;;;;;;;;;;;;24.77;24.21;101233.16;5053734;28;1402;-23
2023/03/18 11:52:31;;;;;;;;;;;;;;;24.73;24.07;101227.25;5070298;28;1087;-22
2023/03/18 11:55:08;;;;;;;;;;;;;;;24.69;24.16;101229.41;5056397;28;1898;-22
2023/03/18 11:57:52;;;;;;;;;;;;;;;24.60;24.19;101227.63;5056170;28;1091;-22
2023/03/18 12:00:21;;;;;;;;;;;;;;;24.63;24.18;101226.47;5057748;28;1018;-22
2023/03/18 12:02:56;;;;;;;;;;;;;;;24.25;25.14;101232.00;5058611;28;1101;-22
2023/03/18 12:05:28;;;;;;;;;;;;;;;24.40;24.74;101225.09;5056852;28;1118;-22
2023/03/18 12:08:10;;;;;;;;;;;;;;;24.39;24.67;101227.94;5058101;28;1030;-22
2023/03/18 12:10:40;;;;;;;;;;;;;;;24.43;24.54;101223.94;5057781;28;1067;-22
2023/03/18 12:13:25;;;;;;;;;;;;;;;24.52;23.97;101223.03;5056421;28;1125;-23
2023/03/18 12:16:05;;;;;;;;;;;;;;;24.77;23.94;101209.81;5057410;28;1976;-22
2023/03/18 12:18:50;;;;;;;;;;;;;;;24.95;23.86;101222.41;5056137;28;1078;-22
2023/03/18 12:21:34;;;;;;;;;;;;;;;24.43;24.38;101215.88;5057784;28;1050;-22
2023/03/18 12:24:07;;;;;;;;;;;;;;;24.72;24.13;101213.94;5057660;28;1086;-23
2023/03/18 12:26:51;;;;;;;;;;;;;;;24.73;24.23;101215.63;5055993;28;1094;-22
2023/03/18 12:29:35;;;;;;;;;;;;;;;24.87;24.31;101219.63;5057836;28;1034;-22
2023/03/18 12:32:10;;;;;;;;;;;;;;;24.90;24.07;101222.00;5057544;28;1022;-22
2023/03/18 12:34:41;;;;;;;;;;;;;;;24.85;24.38;101217.09;5057058;28;1906;-22
2023/03/18 12:37:19;;;;;;;;;;;;;;;24.85;24.52;101225.16;5045170;28;1070;-22
2023/03/18 12:39:55;;;;;;;;;;;;;;;24.98;24.16;101221.22;5057357;28;1147;-22
2023/03/18 12:42:41;;;;;;;;;;;;;;;24.85;24.38;101221.63;5055847;28;1233;-22
2023/03/18 12:45:12;;;;;;;;;;;;;;;24.99;24.09;101225.63;5056975;28;1215;-22
2023/03/18 12:47:39;;;;;;;;;;;;;;;24.85;24.38;101225.16;5055507;28;1173;-23
2023/03/18 12:50:07;;;;;;;;;;;;;;;24.98;24.32;101227.47;5056156;28;1287;-24
2023/03/18 12:52:36;;;;;;;;;;;;;;;25.01;24.07;101235.22;5055964;28;1295;-22
2023/03/18 12:55:02;;;;;;;;;;;;;;;24.89;24.14;101234.59;5056991;28;1906;-22